Time;durP1;ratioP1;P1;durP2;ratioP2;P2;SDS_P1;SDS_P2;PMS_P1;PMS_P2;Temp;Humidity;BMP_temperature;BMP_pressure;BME280_temperature;BME280_humidity;BME280_pressure;Samples;Min_cycle;Max_cycle;Signal;HPM_P1;HPM_P2
2021/07/15 00:01:49;;;;;;;;;5.00;4.00;;;;;25.66;51.79;98010.50;4949097;28;102484;-82
2021/07/15 00:04:17;;;;;;;;;5.00;4.00;;;;;25.63;51.62;98022.19;4933995;28;102513;-82
2021/07/15 00:06:45;;;;;;;;;4.00;4.00;;;;;25.62;51.64;98020.53;4929735;28;105943;-82
2021/07/15 00:09:14;;;;;;;;;4.00;3.67;;;;;25.63;51.63;98010.28;4952737;28;102496;-82
2021/07/15 00:11:44;;;;;;;;;3.67;3.67;;;;;25.63;51.72;97988.97;4940678;28;102569;-82
2021/07/15 00:14:12;;;;;;;;;3.00;3.00;;;;;25.63;51.43;97986.19;4952107;28;102721;-82
2021/07/15 00:16:42;;;;;;;;;5.00;4.00;;;;;25.62;51.60;97970.69;4945790;28;103767;-82
2021/07/15 00:19:15;;;;;;;;;4.33;4.33;;;;;25.62;51.50;97976.25;4929147;28;102685;-82
2021/07/15 00:21:43;;;;;;;;;5.67;4.67;;;;;25.62;51.67;97978.22;4932821;28;104184;-82
2021/07/15 00:24:11;;;;;;;;;4.33;3.33;;;;;25.62;51.56;97976.25;4941498;28;103672;-82
2021/07/15 00:26:39;;;;;;;;;5.00;5.00;;;;;25.61;51.76;97977.41;4943202;28;103132;-82
2021/07/15 00:29:08;;;;;;;;;5.00;4.00;;;;;25.60;51.63;97977.69;4938618;28;105486;-82
2021/07/15 00:31:36;;;;;;;;;4.00;3.00;;;;;25.60;51.83;97984.06;4950697;28;102609;-82
2021/07/15 00:34:06;;;;;;;;;4.33;4.33;;;;;25.60;51.53;97997.91;4924127;28;102567;-81
2021/07/15 00:36:33;;;;;;;;;5.33;4.00;;;;;25.60;51.65;98008.97;4934510;28;104090;-82
2021/07/15 00:39:01;;;;;;;;;3.33;3.00;;;;;25.60;51.61;97989.59;4938210;28;102639;-82
2021/07/15 00:41:28;;;;;;;;;4.67;4.67;;;;;25.61;51.64;97995.94;4933058;28;103102;-82
2021/07/15 00:43:56;;;;;;;;;5.00;4.67;;;;;25.59;51.68;98006.50;4938485;28;103287;-82
2021/07/15 00:46:23;;;;;;;;;2.67;2.67;;;;;25.59;51.71;98004.56;4936162;28;109373;-82
2021/07/15 00:48:50;;;;;;;;;4.00;4.00;;;;;25.58;51.56;98010.41;4940912;28;102577;-82
2021/07/15 00:51:17;;;;;;;;;5.00;4.00;;;;;25.56;51.79;98010.72;4937192;28;102358;-82
2021/07/15 00:53:44;;;;;;;;;5.00;4.00;;;;;25.54;51.59;98018.53;4948068;28;102194;-82
2021/07/15 00:56:11;;;;;;;;;4.00;4.00;;;;;25.54;51.71;98020.47;4926417;28;104797;-82
2021/07/15 00:58:38;;;;;;;;;3.00;3.00;;;;;25.52;51.63;98020.78;4939411;28;103505;-82
2021/07/15 01:01:06;;;;;;;;;5.00;4.00;;;;;25.54;51.70;98028.78;4938945;28;102266;-82
2021/07/15 01:03:33;;;;;;;;;3.67;3.67;;;;;25.54;51.59;98048.16;4906536;28;102277;-82
2021/07/15 01:06:01;;;;;;;;;5.00;4.00;;;;;25.53;51.70;98052.03;4927408;28;104545;-82
2021/07/15 01:08:28;;;;;;;;;3.00;3.00;;;;;25.53;51.82;98069.44;4908711;28;103101;-82
2021/07/15 01:11:24;;;;;;;;;4.67;3.33;;;;;25.53;51.63;98074.19;4940848;28;102462;-82
2021/07/15 01:14:08;;;;;;;;;5.00;4.33;;;;;25.54;51.71;98078.59;4878681;28;103483;-82
2021/07/15 01:16:43;;;;;;;;;4.67;4.67;;;;;25.54;51.67;98086.91;4862040;28;107910;-82
2021/07/15 01:19:49;;;;;;;;;4.33;4.00;;;;;25.53;51.75;98099.91;4924283;28;102934;-82
2021/07/15 01:22:28;;;;;;;;;2.67;2.00;;;;;25.53;51.76;98102.69;4882889;28;102225;-82
2021/07/15 01:25:10;;;;;;;;;4.67;3.00;;;;;25.53;51.63;98099.13;4911895;28;102252;-82
2021/07/15 01:27:45;;;;;;;;;4.00;3.67;;;;;25.53;51.71;98086.06;4877640;28;108552;-82
2021/07/15 01:30:21;;;;;;;;;4.00;3.67;;;;;25.53;51.73;98083.28;4936247;28;102434;-82
2021/07/15 01:33:15;;;;;;;;;4.67;4.67;;;;;25.51;51.54;98079.22;4936649;28;102824;-82
2021/07/15 01:35:56;;;;;;;;;3.67;3.00;;;;;25.52;51.42;98086.41;4873138;28;102685;-82
2021/07/15 01:38:29;;;;;;;;;4.67;3.67;;;;;25.51;51.54;98077.25;4931479;28;108276;-82
2021/07/15 01:41:04;;;;;;;;;5.33;4.00;;;;;25.51;51.48;98057.88;4949529;28;102372;-82
2021/07/15 01:43:38;;;;;;;;;4.33;3.33;;;;;25.51;51.59;98046.00;4936729;28;102026;-82
2021/07/15 01:46:05;;;;;;;;;3.33;3.33;;;;;25.49;51.46;98010.28;4935540;28;102669;-82
2021/07/15 01:48:33;;;;;;;;;4.33;4.33;;;;;25.50;51.53;97975.94;4934462;28;104139;-82
2021/07/15 01:51:00;;;;;;;;;3.67;3.33;;;;;25.49;51.45;97937.50;4946490;28;103133;-82
2021/07/15 01:53:27;;;;;;;;;4.00;4.00;;;;;25.48;51.62;97925.63;4934217;28;102584;-82
2021/07/15 01:55:58;;;;;;;;;3.67;3.67;;;;;25.48;51.85;97911.78;4916450;28;102453;-82
2021/07/15 01:58:25;;;;;;;;;3.67;3.67;;;;;25.49;51.42;97924.47;4939260;28;108944;-82
2021/07/15 02:00:53;;;;;;;;;4.67;4.33;;;;;25.49;51.61;97948.56;4918047;28;102944;-82
2021/07/15 02:03:20;;;;;;;;;5.00;4.00;;;;;25.49;51.60;97963.22;4935298;28;102528;-82
2021/07/15 02:05:48;;;;;;;;;4.00;3.67;;;;;25.49;51.62;97956.88;4934649;28;102339;-82
2021/07/15 02:08:15;;;;;;;;;4.33;4.33;;;;;25.50;51.65;97967.66;4927054;28;104153;-82
2021/07/15 02:10:42;;;;;;;;;4.00;3.67;;;;;25.50;51.57;97972.38;4945459;28;102581;-82
2021/07/15 02:13:09;;;;;;;;;3.00;3.00;;;;;25.50;51.38;97969.59;4924035;28;102289;-82
2021/07/15 02:15:39;;;;;;;;;4.67;4.67;;;;;25.49;51.52;97965.19;4922325;28;103710;-82
2021/07/15 02:18:20;;;;;;;;;4.00;4.00;;;;;25.49;51.58;97982.63;4939923;28;104252;-82
2021/07/15 02:20:49;;;;;;;;;5.33;4.00;;;;;25.49;51.61;98003.94;4931275;28;102488;-82
2021/07/15 02:23:17;;;;;;;;;5.00;3.33;;;;;25.47;51.52;98011.75;4940233;28;102436;-82
2021/07/15 02:25:44;;;;;;;;;4.00;4.00;;;;;25.45;51.64;98009.28;4939457;28;102251;-82
2021/07/15 02:28:12;;;;;;;;;5.67;5.67;;;;;25.45;51.56;98009.28;4923573;28;104141;-82
2021/07/15 02:30:39;;;;;;;;;3.00;3.00;;;;;25.45;51.45;98025.91;4941798;28;102302;-82
2021/07/15 02:33:09;;;;;;;;;4.67;4.00;;;;;25.41;51.58;98047.03;4926877;28;102675;-82
2021/07/15 02:35:40;;;;;;;;;4.00;3.67;;;;;25.42;51.50;98043.13;4933846;28;103393;-82
2021/07/15 02:38:09;;;;;;;;;6.00;6.00;;;;;25.44;51.65;98042.84;4919828;28;103804;-82
2021/07/15 02:40:36;;;;;;;;;5.00;4.00;;;;;25.42;51.65;98036.78;4934678;28;103143;-82
2021/07/15 02:43:04;;;;;;;;;3.00;3.00;;;;;25.40;51.45;98012.16;4934855;28;102535;-82
2021/07/15 02:45:31;;;;;;;;;4.00;4.00;;;;;25.40;51.52;97990.03;4947658;28;103519;-82
2021/07/15 02:47:58;;;;;;;;;3.33;3.33;;;;;25.40;51.42;98006.63;4929933;28;104401;-82
2021/07/15 02:50:27;;;;;;;;;3.67;3.33;;;;;25.39;51.58;98020.81;4936852;28;102610;-82
2021/07/15 02:52:58;;;;;;;;;6.00;5.00;;;;;25.40;51.59;98028.78;4941963;28;102355;-82
2021/07/15 02:55:26;;;;;;;;;4.00;4.00;;;;;25.37;51.59;98034.94;4928788;28;102653;-82
2021/07/15 02:58:11;;;;;;;;;4.00;4.00;;;;;25.37;51.44;98018.34;4933476;28;104105;-82
2021/07/15 03:00:45;;;;;;;;;2.67;2.67;;;;;25.39;51.66;97999.47;4872664;28;102510;-82
2021/07/15 03:03:35;;;;;;;;;3.00;2.67;;;;;25.37;51.44;97979.59;4934844;28;102264;-82
2021/07/15 03:06:10;;;;;;;;;3.67;3.67;;;;;25.36;51.27;97983.47;4931104;28;102633;-82
2021/07/15 03:08:49;;;;;;;;;3.33;3.00;;;;;25.36;51.27;98005.63;4934728;28;104149;-82
2021/07/15 03:11:16;;;;;;;;;6.00;5.00;;;;;25.36;51.46;98011.16;4921558;28;102401;-82
2021/07/15 03:13:46;;;;;;;;;4.00;3.00;;;;;25.35;51.39;97987.41;4904871;28;102250;-82
2021/07/15 03:16:14;;;;;;;;;3.67;3.00;;;;;25.34;51.56;97963.63;4936719;28;102629;-82
2021/07/15 03:18:41;;;;;;;;;2.33;2.33;;;;;25.35;51.52;97968.03;4915972;28;104150;-82
2021/07/15 03:21:08;;;;;;;;;5.00;4.00;;;;;25.33;51.19;97967.50;4934219;28;102256;-82
2021/07/15 03:23:36;;;;;;;;;4.00;4.00;;;;;25.30;51.39;97970.91;4916500;28;102405;-82
2021/07/15 03:26:03;;;;;;;;;4.00;3.00;;;;;25.32;51.39;97968.63;4917389;28;103956;-82
2021/07/15 03:28:31;;;;;;;;;4.67;4.00;;;;;25.31;51.35;97966.97;4944415;28;104280;-82
2021/07/15 03:31:06;;;;;;;;;5.00;5.00;;;;;25.30;51.51;97979.22;4936852;28;102661;-82
2021/07/15 03:33:37;;;;;;;;;3.00;3.00;;;;;25.29;51.47;97985.88;4936198;28;102530;-82
2021/07/15 03:36:05;;;;;;;;;4.00;4.00;;;;;25.28;51.50;97998.06;4919769;28;105798;-82
2021/07/15 03:38:33;;;;;;;;;2.67;2.67;;;;;25.28;51.36;97996.13;4939752;28;104265;-82
2021/07/15 03:41:02;;;;;;;;;4.00;3.00;;;;;25.27;51.61;97988.94;4941809;28;102489;-82
2021/07/15 03:43:29;;;;;;;;;1.67;1.33;;;;;25.28;51.47;97976.75;4948013;28;104194;-82
2021/07/15 03:45:56;;;;;;;;;5.00;4.00;;;;;25.27;51.56;97991.69;4911205;28;102515;-82
2021/07/15 03:48:24;;;;;;;;;4.00;3.33;;;;;25.26;51.49;97986.50;4932953;28;104340;-82
2021/07/15 03:50:51;;;;;;;;;4.67;4.00;;;;;25.26;51.67;97978.19;4936822;28;102498;-82
2021/07/15 03:53:18;;;;;;;;;4.00;3.00;;;;;25.27;51.51;97971.50;4932029;28;102543;-82
2021/07/15 03:55:45;;;;;;;;;5.00;4.00;;;;;25.27;51.52;97971.50;4933484;28;102231;-82
2021/07/15 03:58:13;;;;;;;;;3.00;2.33;;;;;25.25;51.46;97966.31;4936097;28;104302;-82
2021/07/15 04:00:42;;;;;;;;;3.00;3.00;;;;;25.25;51.33;97955.22;4935841;28;102439;-82
2021/07/15 04:03:09;;;;;;;;;2.33;2.33;;;;;25.25;51.46;97959.94;4928405;28;102561;-82
2021/07/15 04:05:37;;;;;;;;;3.00;2.00;;;;;25.26;51.31;97958.81;4929513;28;102703;-82
2021/07/15 04:08:05;;;;;;;;;2.33;1.67;;;;;25.24;51.24;97969.38;4944821;28;104029;-82
2021/07/15 04:10:35;;;;;;;;;3.00;3.00;;;;;25.23;51.32;97974.09;4922580;28;102512;-82
2021/07/15 04:13:02;;;;;;;;;3.33;2.67;;;;;25.22;51.41;97977.16;4930063;28;103243;-82
2021/07/15 04:16:05;;;;;;;;;2.00;2.00;;;;;25.23;51.30;97981.56;4936774;28;102639;-82
2021/07/15 04:18:37;;;;;;;;;3.33;3.00;;;;;25.22;51.42;97977.97;4872541;28;109178;-82
2021/07/15 04:21:05;;;;;;;;;4.00;3.00;;;;;25.22;51.32;97971.63;4923083;28;102419;-82
2021/07/15 04:23:32;;;;;;;;;3.67;2.67;;;;;25.20;51.27;97958.13;4951325;28;102423;-82
2021/07/15 04:25:59;;;;;;;;;3.00;3.00;;;;;25.19;51.27;97963.94;4942800;28;103692;-82
2021/07/15 04:28:26;;;;;;;;;2.33;2.33;;;;;25.18;51.26;97960.34;4933864;28;104674;-82
2021/07/15 04:31:21;;;;;;;;;2.00;2.00;;;;;25.15;51.41;97955.47;4947489;28;102437;-82
2021/07/15 04:33:48;;;;;;;;;3.00;3.00;;;;;25.17;51.23;97972.56;4876417;28;102477;-82
2021/07/15 04:36:15;;;;;;;;;2.67;2.67;;;;;25.18;51.31;97981.69;4954696;28;111400;-82
2021/07/15 04:38:42;;;;;;;;;3.00;2.00;;;;;25.16;51.24;97983.94;4924413;28;104095;-82
2021/07/15 04:41:12;;;;;;;;;1.00;1.00;;;;;25.15;51.51;97985.91;4936622;28;103352;-82
2021/07/15 04:43:39;;;;;;;;;3.00;3.00;;;;;25.14;51.40;97989.78;4900010;28;102593;-82
2021/07/15 04:46:10;;;;;;;;;1.00;1.00;;;;;25.12;51.57;97977.41;4949165;28;102725;-82
2021/07/15 04:48:38;;;;;;;;;2.67;2.67;;;;;25.13;51.36;97973.47;4918598;28;104160;-82
2021/07/15 04:51:06;;;;;;;;;4.00;4.00;;;;;25.14;51.34;97966.81;4943020;28;102361;-82
2021/07/15 04:53:33;;;;;;;;;3.00;2.33;;;;;25.13;51.49;97959.66;4954821;28;102636;-83
2021/07/15 04:56:00;;;;;;;;;3.00;2.00;;;;;25.11;51.69;97970.22;4914656;28;102423;-82
2021/07/15 04:58:27;;;;;;;;;2.00;2.00;;;;;25.12;51.52;97971.88;4933500;28;104251;-82
2021/07/15 05:00:54;;;;;;;;;2.67;2.67;;;;;25.14;51.76;97983.44;4941086;28;102518;-82
2021/07/15 05:03:29;;;;;;;;;4.33;3.00;;;;;25.16;51.42;98000.56;4948676;28;102255;-82
2021/07/15 05:05:59;;;;;;;;;3.00;3.00;;;;;25.14;51.40;98009.16;4943093;28;102651;-82
2021/07/15 05:08:26;;;;;;;;;4.67;3.00;;;;;25.12;51.39;98007.84;4945315;28;104266;-82
2021/07/15 05:10:54;;;;;;;;;2.33;2.00;;;;;25.11;51.31;98011.72;4955961;28;102494;-82
2021/07/15 05:13:21;;;;;;;;;1.67;1.67;;;;;25.13;51.47;98001.16;4941611;28;104180;-82
2021/07/15 05:15:49;;;;;;;;;2.67;2.67;;;;;25.10;51.76;98018.38;4931496;28;102233;-82
2021/07/15 05:18:16;;;;;;;;;3.33;2.33;;;;;25.10;51.73;98021.97;4950728;28;104341;-82
2021/07/15 05:20:43;;;;;;;;;2.67;2.67;;;;;25.09;51.72;98023.09;4946470;28;102657;-82
2021/07/15 05:23:11;;;;;;;;;2.33;2.33;;;;;25.08;51.77;98031.72;4939093;28;103312;-82
2021/07/15 05:25:38;;;;;;;;;2.33;2.33;;;;;25.09;51.56;98030.56;4941938;28;102231;-82
2021/07/15 05:28:05;;;;;;;;;3.00;2.00;;;;;25.07;51.41;98038.38;4935293;28;104107;-82
2021/07/15 05:30:32;;;;;;;;;3.00;3.00;;;;;25.07;51.72;98038.38;4936681;28;102778;-82
2021/07/15 05:32:59;;;;;;;;;2.00;2.00;;;;;25.08;51.72;98042.78;4948788;28;102301;-82
2021/07/15 05:35:26;;;;;;;;;2.00;1.67;;;;;25.06;51.77;98029.25;4936707;28;104677;-82
2021/07/15 05:37:53;;;;;;;;;3.00;3.00;;;;;25.08;51.54;98037.25;4936808;28;104266;-82
2021/07/15 05:40:21;;;;;;;;;2.00;2.00;;;;;25.07;51.61;98038.38;4937121;28;102595;-82
2021/07/15 05:42:48;;;;;;;;;3.67;3.00;;;;;25.05;51.43;98038.69;4936760;28;102217;-82
2021/07/15 05:45:17;;;;;;;;;3.33;3.00;;;;;25.07;51.81;98041.16;4932464;28;105220;-82
2021/07/15 05:47:44;;;;;;;;;3.33;2.67;;;;;25.05;51.51;98040.63;4936588;28;104133;-82
2021/07/15 05:50:11;;;;;;;;;3.00;3.00;;;;;25.05;51.56;98026.78;4941710;28;102621;-82
2021/07/15 05:52:38;;;;;;;;;2.33;2.33;;;;;25.06;51.71;98017.38;4936955;28;102611;-82
2021/07/15 05:55:10;;;;;;;;;3.00;3.00;;;;;25.07;51.63;97977.50;4941557;28;108068;-82
2021/07/15 05:57:38;;;;;;;;;3.00;3.00;;;;;25.08;51.81;97970.84;4938011;28;104271;-82
2021/07/15 06:00:07;;;;;;;;;2.00;2.00;;;;;25.05;51.74;97997.19;4933694;28;102651;-82
2021/07/15 06:02:34;;;;;;;;;2.00;2.00;;;;;25.03;51.74;98002.22;4933784;28;102379;-82
2021/07/15 06:05:22;;;;;;;;;2.00;2.00;;;;;25.04;51.62;98008.53;4882808;28;102453;-82
2021/07/15 06:07:52;;;;;;;;;3.00;2.33;;;;;25.03;51.81;97985.63;4943887;28;104134;-82
2021/07/15 06:10:20;;;;;;;;;2.33;2.33;;;;;25.03;51.88;98002.22;4933134;28;102723;-82
2021/07/15 06:12:47;;;;;;;;;2.00;2.00;;;;;25.04;51.75;98006.59;4951475;28;102588;-82
2021/07/15 06:15:14;;;;;;;;;2.00;2.00;;;;;25.03;51.88;98037.34;4943079;28;102508;-82
2021/07/15 06:17:42;;;;;;;;;3.00;1.33;;;;;25.04;51.70;98044.50;4939878;28;104259;-82
2021/07/15 06:20:13;;;;;;;;;3.33;2.00;;;;;25.04;51.98;98048.09;4938248;28;103528;-82
2021/07/15 06:22:41;;;;;;;;;2.00;2.00;;;;;25.05;51.70;98052.50;4945645;28;102527;-82
2021/07/15 06:25:09;;;;;;;;;1.67;1.67;;;;;25.06;51.86;98064.41;4943857;28;105484;-82
2021/07/15 06:27:40;;;;;;;;;3.00;3.00;;;;;25.05;51.95;98071.88;4945276;28;108893;-82
2021/07/15 06:30:08;;;;;;;;;3.00;2.00;;;;;25.07;51.71;98077.94;4944481;28;102172;-82
2021/07/15 06:32:35;;;;;;;;;4.00;3.00;;;;;25.06;52.08;98078.22;4941060;28;102608;-82
2021/07/15 06:35:03;;;;;;;;;3.00;3.00;;;;;25.05;51.97;98088.47;4945322;28;103374;-82
2021/07/15 06:37:35;;;;;;;;;3.00;3.00;;;;;25.07;52.01;98105.59;4932139;28;104087;-82
2021/07/15 06:40:07;;;;;;;;;2.33;2.33;;;;;25.07;51.92;98135.22;4936848;28;103331;-82
2021/07/15 06:42:34;;;;;;;;;3.00;3.00;;;;;25.06;52.16;98139.09;4942252;28;103445;-82
2021/07/15 06:45:03;;;;;;;;;2.00;2.00;;;;;25.06;52.16;98145.47;4952603;28;102329;-82
2021/07/15 06:47:31;;;;;;;;;2.33;1.67;;;;;25.07;52.02;98137.97;4936285;28;104287;-82
2021/07/15 06:49:58;;;;;;;;;2.00;2.00;;;;;25.05;52.13;98127.22;4933408;28;103427;-82
2021/07/15 06:52:29;;;;;;;;;2.67;2.33;;;;;25.04;52.03;98108.97;4950772;28;102614;-82
2021/07/15 06:55:01;;;;;;;;;2.00;2.00;;;;;25.06;52.17;98072.69;4936547;28;102163;-82
2021/07/15 06:57:29;;;;;;;;;1.33;1.33;;;;;25.07;52.26;98068.81;4947344;28;104474;-82
2021/07/15 07:00:01;;;;;;;;;3.00;3.00;;;;;25.06;52.17;98067.16;4940795;28;102313;-82
2021/07/15 07:02:28;;;;;;;;;3.00;3.00;;;;;25.03;52.09;98059.50;4932538;28;102721;-82
2021/07/15 07:04:58;;;;;;;;;3.00;2.33;;;;;25.02;52.25;98061.44;4941095;28;102435;-82
2021/07/15 07:07:25;;;;;;;;;3.00;3.00;;;;;25.03;52.37;98057.53;4940066;28;104485;-82
2021/07/15 07:09:52;;;;;;;;;3.00;2.33;;;;;25.04;52.43;98050.03;4939000;28;102469;-82
2021/07/15 07:12:20;;;;;;;;;2.33;2.33;;;;;25.04;52.43;98028.72;4930499;28;103551;-82
2021/07/15 07:14:47;;;;;;;;;1.67;1.67;;;;;25.03;52.55;98004.16;4933098;28;102655;-82
2021/07/15 07:17:14;;;;;;;;;2.67;2.67;;;;;25.03;52.26;97993.09;4940513;28;104028;-82
2021/07/15 07:19:41;;;;;;;;;2.00;2.00;;;;;25.03;52.45;98001.41;4923901;28;104316;-82
2021/07/15 07:22:08;;;;;;;;;3.00;2.67;;;;;25.03;52.41;98029.88;4945213;28;103400;-82
2021/07/15 07:24:35;;;;;;;;;2.33;2.33;;;;;25.03;52.55;98045.66;4948178;28;102733;-82
2021/07/15 07:27:03;;;;;;;;;3.67;3.00;;;;;25.00;52.35;98055.38;4938176;28;104334;-82
2021/07/15 07:29:33;;;;;;;;;3.00;2.33;;;;;24.99;52.48;98069.53;4934275;28;104645;-82
2021/07/15 07:32:00;;;;;;;;;2.00;2.00;;;;;25.01;52.34;98075.56;4939920;28;102382;-82
2021/07/15 07:34:29;;;;;;;;;4.00;3.00;;;;;24.99;52.49;98077.84;4935621;28;102122;-82
2021/07/15 07:36:56;;;;;;;;;2.00;2.00;;;;;24.96;52.54;98092.25;4934427;28;104057;-83
2021/07/15 07:39:24;;;;;;;;;2.33;2.00;;;;;24.97;52.50;98113.28;4943696;28;102670;-82
2021/07/15 07:41:51;;;;;;;;;2.67;2.67;;;;;24.98;52.67;98115.75;4936385;28;102206;-82
2021/07/15 07:44:19;;;;;;;;;4.00;3.00;;;;;24.98;52.32;98121.28;4943790;28;102279;-82
2021/07/15 07:46:46;;;;;;;;;4.00;3.00;;;;;24.97;52.40;98136.22;4954183;28;104211;-82
2021/07/15 07:49:13;;;;;;;;;0.33;0.33;;;;;24.95;52.70;98138.47;4939521;28;102453;-82
2021/07/15 07:51:40;;;;;;;;;2.67;2.00;;;;;24.95;52.84;98165.34;4942588;28;102426;-82
2021/07/15 07:54:08;;;;;;;;;2.33;2.33;;;;;24.97;52.29;98168.59;4958777;28;102651;-82
2021/07/15 07:56:35;;;;;;;;;5.00;2.00;;;;;24.96;52.62;98166.94;4940725;28;104150;-82
2021/07/15 07:59:02;;;;;;;;;3.00;3.00;;;;;24.94;52.47;98163.69;4953184;28;102645;-82
2021/07/15 08:01:29;;;;;;;;;3.00;3.00;;;;;24.94;52.43;98169.22;4947154;28;102595;-82
2021/07/15 08:03:57;;;;;;;;;2.00;2.00;;;;;24.97;52.61;98168.59;4936375;28;103314;-82
2021/07/15 08:06:24;;;;;;;;;2.67;2.67;;;;;24.94;52.76;98166.44;4941504;28;107338;-82
2021/07/15 08:08:52;;;;;;;;;3.67;3.67;;;;;24.96;52.55;98186.31;4945733;28;110710;-82
2021/07/15 08:11:20;;;;;;;;;4.33;3.00;;;;;24.93;52.62;98190.53;4935839;28;103318;-82
2021/07/15 08:13:47;;;;;;;;;1.00;1.00;;;;;24.93;52.75;98178.63;4952094;28;102484;-82
2021/07/15 08:16:14;;;;;;;;;3.33;2.67;;;;;24.91;52.74;98176.16;4936181;28;104115;-82
2021/07/15 08:18:42;;;;;;;;;3.33;3.00;;;;;24.90;52.78;98174.53;4939737;28;102248;-81
2021/07/15 08:21:09;;;;;;;;;3.00;3.00;;;;;24.90;52.88;98176.47;4945635;28;102869;-82
2021/07/15 08:23:36;;;;;;;;;4.00;3.00;;;;;24.90;52.68;98174.53;4946497;28;102315;-82
2021/07/15 08:26:03;;;;;;;;;2.00;2.00;;;;;24.87;52.92;98167.66;4942577;28;103908;-82
2021/07/15 08:28:30;;;;;;;;;2.00;2.00;;;;;24.91;52.74;98161.50;4939167;28;102598;-82
2021/07/15 08:31:02;;;;;;;;;3.00;3.00;;;;;24.87;53.30;98155.78;4954522;28;102231;-82
2021/07/15 08:33:29;;;;;;;;;3.00;2.33;;;;;24.90;52.84;98168.19;4949134;28;102720;-82
2021/07/15 08:35:56;;;;;;;;;4.67;3.67;;;;;24.92;52.74;98172.28;4944641;28;104284;-82
2021/07/15 08:38:24;;;;;;;;;2.33;2.33;;;;;24.92;52.78;98179.75;4940761;28;102229;-82
2021/07/15 08:40:51;;;;;;;;;2.67;2.67;;;;;24.91;52.95;98183.63;4943391;28;102538;-82
2021/07/15 08:43:18;;;;;;;;;1.33;1.33;;;;;24.92;53.03;98177.81;4938060;28;102612;-82
2021/07/15 08:45:45;;;;;;;;;2.33;2.33;;;;;24.89;53.13;98167.38;4934464;28;104033;-82
2021/07/15 08:48:13;;;;;;;;;2.67;1.67;;;;;24.91;53.04;98175.34;4943287;28;104465;-82
2021/07/15 08:50:40;;;;;;;;;3.00;3.00;;;;;24.88;52.86;98172.06;4925994;28;102630;-82
2021/07/15 08:53:08;;;;;;;;;2.00;2.00;;;;;24.88;53.13;98166.53;4954598;28;102915;-82
2021/07/15 08:58:18;;;;;;;;;2.67;2.67;;;;;24.91;53.05;98169.81;4935414;28;102396;-82
2021/07/15 09:00:46;;;;;;;;;3.00;2.33;;;;;24.87;53.01;98164.88;4940733;28;103107;-82
2021/07/15 09:03:13;;;;;;;;;2.00;2.00;;;;;24.87;52.88;98158.53;4946288;28;104133;-82
2021/07/15 09:05:43;;;;;;;;;2.33;2.33;;;;;24.87;53.20;98169.59;4937333;28;104171;-82
2021/07/15 09:08:12;;;;;;;;;2.33;2.00;;;;;24.84;53.05;98182.06;4943627;28;102846;-82
2021/07/15 09:10:41;;;;;;;;;1.67;1.67;;;;;24.84;53.13;98176.53;4948827;28;102541;-82
2021/07/15 09:13:10;;;;;;;;;2.33;1.67;;;;;24.83;53.37;98174.88;4936712;28;102496;-82
2021/07/15 09:15:39;;;;;;;;;3.33;2.33;;;;;24.81;52.89;98179.88;4935623;28;105118;-82
2021/07/15 09:18:13;;;;;;;;;2.00;2.00;;;;;24.84;53.04;98190.38;4944423;28;103286;-82
2021/07/15 09:20:41;;;;;;;;;2.00;2.00;;;;;24.84;52.92;98195.91;4940450;28;103135;-82
2021/07/15 09:23:13;;;;;;;;;2.00;1.67;;;;;24.82;53.05;98200.91;4938346;28;102178;-82
2021/07/15 09:25:40;;;;;;;;;0.00;0.00;;;;;24.84;53.27;98198.66;4943811;28;108742;-82
2021/07/15 09:28:09;;;;;;;;;1.33;1.33;;;;;24.84;53.19;98192.31;4939975;28;102697;-82
2021/07/15 09:30:37;;;;;;;;;3.00;3.00;;;;;24.86;52.92;98201.97;4938464;28;102758;-83
2021/07/15 09:33:06;;;;;;;;;1.67;1.67;;;;;24.88;53.11;98187.84;4954207;28;103177;-82
2021/07/15 09:35:41;;;;;;;;;3.00;3.00;;;;;24.89;52.92;98192.25;4940885;28;104089;-82
2021/07/15 09:38:16;;;;;;;;;0.67;0.67;;;;;24.91;53.12;98191.94;4933216;28;103572;-82
2021/07/15 09:40:51;;;;;;;;;2.33;2.33;;;;;24.92;53.28;98188.03;4917333;28;102235;-82
2021/07/15 09:43:23;;;;;;;;;2.00;2.00;;;;;24.94;52.95;98183.03;4938389;28;103327;-82
2021/07/15 09:45:55;;;;;;;;;1.33;1.33;;;;;24.95;53.11;98193.78;4920366;28;103726;-82
2021/07/15 09:48:24;;;;;;;;;2.33;2.33;;;;;24.97;53.07;98191.53;4934861;28;102378;-82
2021/07/15 09:50:53;;;;;;;;;2.33;2.00;;;;;24.99;53.07;98182.97;4954582;28;102539;-82
2021/07/15 09:53:24;;;;;;;;;1.00;1.00;;;;;25.00;53.14;98184.56;4937906;28;102516;-82
2021/07/15 09:56:22;;;;;;;;;2.00;2.00;;;;;25.01;53.05;98175.16;4932410;28;104323;-82
2021/07/15 09:58:50;;;;;;;;;1.00;1.00;;;;;25.04;53.09;98169.00;4872891;28;102646;-82
2021/07/15 10:01:20;;;;;;;;;2.33;2.00;;;;;25.05;52.88;98165.13;4940565;28;102499;-82
2021/07/15 10:03:51;;;;;;;;;1.67;1.33;;;;;25.07;53.16;98162.88;4933219;28;103786;-82
2021/07/15 10:06:19;;;;;;;;;2.33;2.00;;;;;25.08;52.72;98165.31;4942949;28;108175;-82
2021/07/15 10:08:51;;;;;;;;;2.00;2.00;;;;;25.11;52.87;98163.91;4949427;28;102179;-82
2021/07/15 10:11:26;;;;;;;;;2.33;1.33;;;;;25.11;53.12;98169.44;4938317;28;102376;-82
2021/07/15 10:14:01;;;;;;;;;2.00;2.00;;;;;25.13;53.14;98156.94;4932572;28;102462;-81
2021/07/15 10:16:35;;;;;;;;;1.67;1.67;;;;;25.14;53.11;98168.81;4938241;28;104325;-82
2021/07/15 10:19:04;;;;;;;;;1.33;1.33;;;;;25.15;53.14;98167.69;4940595;28;102440;-82
2021/07/15 10:21:33;;;;;;;;;0.00;0.00;;;;;25.16;52.85;98158.28;4938463;28;102622;-82
2021/07/15 10:24:21;;;;;;;;;1.33;1.33;;;;;25.16;52.87;98158.28;4937259;28;102436;-82
2021/07/15 10:26:52;;;;;;;;;3.00;1.67;;;;;25.18;52.73;98162.38;4939457;28;108778;-82
2021/07/15 10:29:20;;;;;;;;;1.00;0.33;;;;;25.20;52.63;98167.59;4929257;28;103438;-82
2021/07/15 10:31:47;;;;;;;;;1.67;1.67;;;;;25.21;52.69;98163.72;4938766;28;102396;-82
2021/07/15 10:34:15;;;;;;;;;1.33;1.33;;;;;25.19;52.80;98164.00;4937098;28;105415;-82
2021/07/15 10:36:42;;;;;;;;;3.00;3.00;;;;;25.23;52.63;98161.44;4940539;28;107185;-82
2021/07/15 10:39:11;;;;;;;;;1.33;1.33;;;;;25.25;52.35;98160.03;4936107;28;103590;-82
2021/07/15 10:41:38;;;;;;;;;1.00;1.00;;;;;25.27;52.36;98156.94;4936120;28;103363;-82
2021/07/15 10:44:08;;;;;;;;;1.00;1.00;;;;;25.27;52.44;98162.47;4943753;28;104571;-82
2021/07/15 10:46:35;;;;;;;;;2.00;2.00;;;;;25.28;52.25;98158.59;4944776;28;103909;-82
2021/07/15 10:49:22;;;;;;;;;0.33;0.33;;;;;25.27;52.41;98157.75;4921141;28;103384;-82
2021/07/15 10:51:50;;;;;;;;;3.00;1.33;;;;;25.29;52.30;98143.63;4942773;28;102723;-82
2021/07/15 10:54:18;;;;;;;;;2.67;2.00;;;;;25.31;52.26;98141.34;4928227;28;102982;-81
2021/07/15 10:56:48;;;;;;;;;2.67;1.00;;;;;25.31;52.12;98131.09;4940213;28;103827;-82
2021/07/15 10:59:28;;;;;;;;;1.00;1.00;;;;;25.32;52.01;98124.44;4940736;28;104854;-81
2021/07/15 11:01:56;;;;;;;;;1.00;1.00;;;;;25.35;52.19;98123.03;4864962;28;103382;-82
2021/07/15 11:04:37;;;;;;;;;1.00;1.00;;;;;25.33;52.09;98116.97;4938790;28;102433;-82
2021/07/15 11:07:18;;;;;;;;;2.33;1.33;;;;;25.35;51.92;98114.72;4947866;28;104090;-82
2021/07/15 11:09:46;;;;;;;;;2.67;1.67;;;;;25.28;52.32;98104.06;4930851;28;102383;-82
2021/07/15 11:12:29;;;;;;;;;2.00;2.00;;;;;25.35;51.93;98097.28;4924719;28;102721;-82
2021/07/15 11:15:01;;;;;;;;;1.67;1.67;;;;;25.37;51.81;98095.84;4890443;28;102910;-82
2021/07/15 11:17:30;;;;;;;;;1.33;1.33;;;;;25.35;52.05;98106.41;4943350;28;104180;-82
2021/07/15 11:20:07;;;;;;;;;1.00;1.00;;;;;25.37;52.11;98103.31;4934364;28;103693;-82
2021/07/15 11:22:46;;;;;;;;;1.00;1.00;;;;;25.39;51.88;98103.84;4933535;28;102397;-82
2021/07/15 11:25:41;;;;;;;;;2.00;1.00;;;;;25.41;51.77;98119.00;4958340;28;102217;-82
2021/07/15 11:28:12;;;;;;;;;1.00;1.00;;;;;25.41;51.70;98124.53;4879290;28;108736;-82
2021/07/15 11:30:40;;;;;;;;;0.67;0.67;;;;;25.42;51.64;98125.38;4934626;28;103969;-82
2021/07/15 11:33:17;;;;;;;;;2.00;2.00;;;;;25.45;51.89;98120.03;4939814;28;102392;-82
2021/07/15 11:36:07;;;;;;;;;1.00;1.00;;;;;25.45;51.79;98113.66;4944293;28;102172;-82
2021/07/15 11:38:42;;;;;;;;;0.33;0.33;;;;;25.46;51.85;98116.13;4868971;28;108685;-82
2021/07/15 11:41:14;;;;;;;;;1.00;1.00;;;;;25.46;51.72;98116.13;4936957;28;103909;-82